Mason City Municipal Airport
KMCW : rendu visible

Aérodrome :











RETROUVEZ-NOUS SUR...

 
LOGIN :

S'inscrire | Disclaimer

   EN    FR    IT 

 









Légende :    VFR   VFR Marginal   IFR   IFR Intensif   IFR Très Intensif
Visi : 
Plafond : 
>= 8 km
>= 3000ft
5 à 8 km
1000 à 3000 ft
1500m à 5 km
500 à 1000 ft
800 à 1500m
200 à 500 ft
< 800m
< 200 ft
Symboles :   Orages  Brouillard  Fortes neiges  Fortes précipitations  Vent > 20 kt






- Altitude de l'aérodrome : 1213 ft


KMCW - Mason City Municipal

DERNIER METAR :
  • 190112Z AUTO 30031G41KT 3SM -SN OVC015 M18/M22 A3015 RMK AO2 PK WND 30041/0109 UPE08SNB08 P0000 T11831222

METARs EXPIRÉS :
  • 190101Z AUTO 30029G38KT 1 3/4SM UP OVC015 M18/M22 A3015 RMK AO2 PK WND 30038/0101 VIS 3/4V5 P0000 T11831217
  • 190053Z AUTO 30026G37KT 1 3/4SM UP OVC014 M18/M22 A3014 RMK AO2 PK WND 30037/0047 SLP226 P0000 T11831217
  • 190041Z AUTO 30023G30KT 1 3/4SM UP OVC015 M18/M21 A3014 RMK AO2 PK WND 31035/0022 P0000 T11831211
  • 190033Z AUTO 30019G35KT 3SM UP OVC015 M18/M22 A3013 RMK AO2 PK WND 31035/0022 P0000 T11831217
  • 190011Z AUTO 30024G34KT 1 3/4SM UP OVC015 M18/M21 A3013 RMK AO2 PK WND 29034/0007 VIS 1V3 P0000 T11831211
  • 182353Z AUTO 30026G34KT 2SM UP OVC014 M18/M21 A3011 RMK AO2 PK WND 30038/2256 UPB27E32B45SNB32E45 SLP216 P0000 60000 T11831211 11133 21183 51014
  • 182338Z AUTO 30021G30KT 1 1/4SM -SN OVC012 M18/M21 A3012 RMK AO2 PK WND 30038/2256 UPB27E32SNB32 P0000 T11781206
  • 182327Z AUTO 30025G36KT 2 1/2SM UP OVC014 M18/M21 A3011 RMK AO2 PK WND 30038/2256 UPB27 P0000 T11781211
  • 182311Z AUTO 30024G35KT 9SM BKN015 M18/M22 A3010 RMK AO2 PK WND 30038/2256 T11781217
  • 182253Z AUTO 30026G40KT 2 1/2SM HZ BKN014 OVC019 M18/M22 A3010 RMK AO2 PK WND 29043/2207 UPB01E53SNE01B24E36 SLP210 P0000 T11781217

TAF KMCW
Valide du 19 à 01h jusqu'au 20 à 00h UTC


190033Z 1901/1924 30024G34KT 2SM BLSN BKN015
TEMPO 1901/1905 6SM SCT015
FM190500 31016G26KT P6SM SCT012
FM191800 31014KT P6SM FEW070



MET'MAP, la Météo Aéronautique d'un coup d'oeil ! - Copyright ORBIFLY Décembre 2007 - Disclaimer

ORBIFLY MET'MAP TEAM :

Programmation & Développement : Alexandra Zaïnal
Sur une idée originale de : Baudouin d'Aumeries
Assistance à la programmation : Marc-Olivier Méhu
Soutien technique & logistique : Manuel Goepfert

Contact : metmap@orbifly.com




SOURCES & CREDITS :

   NOAA       Earth
Advisory